createdAt,value
2019-02-06T00:00:26.258Z,20.30
2019-02-06T00:10:16.068Z,19.23
2019-02-06T00:20:17.363Z,17.97
2019-02-06T00:30:19.976Z,23.67
2019-02-06T00:40:21.321Z,21.67
2019-02-06T00:50:22.600Z,16.70
2019-02-06T01:00:23.865Z,17.70
2019-02-06T01:10:25.125Z,17.37
2019-02-06T01:20:26.437Z,16.70
2019-02-06T01:30:27.860Z,17.00
2019-02-06T01:40:29.146Z,17.03
2019-02-06T01:50:30.442Z,17.43
2019-02-06T02:00:31.849Z,16.90
2019-02-06T02:10:33.151Z,17.13
2019-02-06T02:20:34.443Z,17.50
2019-02-06T02:30:35.717Z,16.60
2019-02-06T02:40:37.004Z,18.03
2019-02-06T02:50:38.406Z,20.17
2019-02-06T03:00:39.669Z,15.63
2019-02-06T03:10:40.980Z,19.07
2019-02-06T03:20:42.234Z,21.00
2019-02-06T03:30:43.659Z,16.73
2019-02-06T03:40:44.886Z,20.73
2019-02-06T03:50:46.173Z,17.77
2019-02-06T04:00:47.450Z,20.47
2019-02-06T04:10:48.757Z,19.77
2019-02-06T04:20:50.037Z,18.53
2019-02-06T04:30:51.345Z,14.20
2019-02-06T04:40:52.806Z,18.63
2019-02-06T04:50:54.290Z,25.03
2019-02-06T05:00:55.801Z,29.10
2019-02-06T05:10:57.173Z,21.53
2019-02-06T05:20:58.559Z,25.20
2019-02-06T05:31:00.032Z,22.77
2019-02-06T05:41:01.449Z,19.40
2019-02-06T05:51:02.769Z,19.70
2019-02-06T06:01:04.131Z,17.03
2019-02-06T06:11:05.516Z,21.23
2019-02-06T06:21:07.004Z,19.27
2019-02-06T06:31:08.487Z,23.93
2019-02-06T06:41:09.906Z,28.50
2019-02-06T07:42:28.503Z,24.03
2019-02-06T07:52:29.817Z,19.83
2019-02-06T08:02:31.119Z,19.80
2019-02-06T08:12:32.400Z,15.77
2019-02-06T08:22:33.681Z,13.37
2019-02-06T08:32:37.826Z,10.07
2019-02-06T08:42:36.264Z,10.70
2019-02-06T08:52:37.551Z,11.77
2019-02-06T09:02:38.847Z,14.47
2019-02-06T09:12:40.149Z,13.70
2019-02-06T09:22:42.202Z,11.47
2019-02-06T09:32:43.455Z,11.70
2019-02-06T09:42:45.479Z,11.60
2019-02-06T09:52:46.755Z,10.75
2019-02-06T10:23:02.117Z,9.57
2019-02-06T10:33:04.258Z,11.13
2019-02-06T10:43:05.536Z,10.57
2019-02-06T10:53:07.557Z,16.23
2019-02-06T11:03:08.832Z,13.60
2019-02-06T11:23:23.094Z,9.93
2019-02-06T11:33:24.406Z,17.60
2019-02-06T11:43:25.870Z,15.70
2019-02-06T12:13:42.996Z,17.00
2019-02-06T12:23:44.387Z,15.00
2019-02-06T12:33:45.656Z,15.30
2019-02-06T12:43:46.924Z,14.10
2019-02-06T12:53:48.197Z,16.33
2019-02-06T13:03:54.913Z,15.47
2019-02-06T13:13:56.216Z,14.03
2019-02-06T13:23:58.233Z,14.63
2019-02-06T13:34:00.285Z,14.57
2019-02-06T13:44:01.541Z,15.03
2019-02-06T13:54:02.815Z,13.67
2019-02-06T14:04:04.109Z,17.20
2019-02-06T14:14:06.309Z,16.60
2019-02-06T14:24:07.604Z,18.73
2019-02-06T14:34:13.113Z,13.40
2019-02-06T14:44:14.473Z,20.33
2019-02-06T15:04:22.539Z,17.50
2019-02-06T15:14:23.801Z,19.13
2019-02-06T15:24:27.264Z,15.57
2019-02-06T15:34:28.769Z,22.27
2019-02-06T15:44:30.024Z,18.47
2019-02-06T16:14:48.213Z,28.90
2019-02-06T16:24:50.257Z,24.27
2019-02-06T16:34:51.538Z,23.90
2019-02-06T16:44:58.048Z,21.17
2019-02-06T16:55:00.174Z,24.63
2019-02-06T17:05:01.456Z,29.37
2019-02-06T17:15:06.945Z,30.07
2019-02-06T17:25:08.987Z,30.95
2019-02-06T17:35:10.246Z,27.93
2019-02-06T17:45:11.531Z,28.17
2019-02-06T17:55:12.821Z,26.40
2019-02-06T18:05:14.898Z,27.17
2019-02-06T18:15:16.180Z,28.83
2019-02-06T18:25:17.457Z,23.63
2019-02-06T18:35:19.625Z,24.27
2019-02-06T18:45:20.916Z,28.93
2019-02-06T18:55:22.281Z,26.97
2019-02-06T19:05:23.587Z,30.70
2019-02-06T19:15:24.886Z,28.67
2019-02-06T19:25:26.259Z,28.33
2019-02-06T19:35:28.611Z,28.77
2019-02-06T19:45:29.929Z,30.80
2019-02-06T19:55:31.279Z,34.30
2019-02-06T20:05:32.629Z,33.20
2019-02-06T20:15:33.977Z,32.27
2019-02-06T20:25:35.317Z,27.27
2019-02-06T20:35:36.890Z,41.37
2019-02-06T20:45:38.248Z,38.33
2019-02-06T20:55:39.602Z,35.60
2019-02-06T21:05:40.884Z,32.40
2019-02-06T21:15:42.222Z,43.67
2019-02-06T21:25:43.497Z,33.87
2019-02-06T21:35:44.781Z,36.10
2019-02-06T21:45:46.157Z,32.27
2019-02-06T21:55:47.605Z,35.00
2019-02-06T22:05:48.897Z,29.80
2019-02-06T22:15:50.212Z,28.63
2019-02-06T22:25:51.590Z,34.23
2019-02-06T22:35:52.907Z,33.27
2019-02-06T22:45:54.281Z,33.67
2019-02-06T22:55:55.678Z,27.97
2019-02-06T23:05:56.962Z,33.33
2019-02-06T23:15:58.341Z,30.27
2019-02-06T23:25:59.665Z,29.40
2019-02-06T23:36:00.948Z,31.80
2019-02-06T23:46:02.440Z,29.57
2019-02-06T23:56:03.714Z,37.20
